Terminal Aerodrome Forecast
Issued by NWS

Home | Current Version | Previous Version | Text Only | Print | Product List | Glossary On
Versions: 1 2 3 4 5 6 7 8 9 10 11 12 13 14
000
FTUS46 KHNX 020901 AAA
TAFMCE
TAF AMD
KMCE 020901Z 0209/0306 14009KT P6SM VCTS SCT050CB BKN120
      TEMPO 0209/0212 14017G21KT 6SM -TSRA BKN030CB
     FM030000 30007KT P6SM SCT100 BKN150=

USA.gov is the U.S. government's official web portal to all federal, state and local government web resources and services.